<?xml version="1.0" encoding="UTF-8"?>
<gpx  version="1.1"  creator="Verlag Esterbauer" xmlns:xsi="http://www.w3.org/2001/XMLSchema-instance" xmlns="http://www.topografix.com/GPX/1/1"  xsi:schemaLocation="http://www.topografix.com/GPX/1/1 http://www.topografix.com/GPX/1/1/gpx.xsd">
<trk>
  <name>wf-gran_T19</name>
  <trkseg>
    <trkpt lat="28.140553" lon="-15.63266">
    <time>1971-01-13T12:01:19Z</time>
    </trkpt>
    <trkpt lat="28.140532" lon="-15.632805">
    <time>1971-01-13T12:01:32Z</time>
  <cmt>extensions = 1.32</cmt>
    </trkpt>
    <trkpt lat="28.140559" lon="-15.632893">
    <time>1971-01-13T12:01:40Z</time>
  <cmt>extensions = 1.14</cmt>
    </trkpt>
    <trkpt lat="28.140517" lon="-15.632983">
    <time>1971-01-13T12:01:49Z</time>
  <cmt>extensions = 0.56</cmt>
    </trkpt>
    <trkpt lat="28.140471" lon="-15.633197">
    <time>1971-01-13T12:02:09Z</time>
  <cmt>extensions = 0.77</cmt>
    </trkpt>
    <trkpt lat="28.140441" lon="-15.633116">
    <time>1971-01-13T12:02:16Z</time>
  <cmt>extensions = 3.71</cmt>
    </trkpt>
    <trkpt lat="28.140358" lon="-15.633219">
    <time>1971-01-13T12:02:29Z</time>
  <cmt>extensions = 0.98</cmt>
    </trkpt>
    <trkpt lat="28.140245" lon="-15.633312">
    <time>1971-01-13T12:02:43Z</time>
  <cmt>extensions = 1.02</cmt>
    </trkpt>
    <trkpt lat="28.14013" lon="-15.633497">
    <time>1971-01-13T12:03:02Z</time>
  <cmt>extensions = 1.37</cmt>
    </trkpt>
    <trkpt lat="28.140052" lon="-15.633559">
    <time>1971-01-13T12:03:12Z</time>
  <cmt>extensions = 1.42</cmt>
    </trkpt>
    <trkpt lat="28.139859" lon="-15.633643">
    <time>1971-01-13T12:03:33Z</time>
  <cmt>extensions = 1.25</cmt>
    </trkpt>
    <trkpt lat="28.139795" lon="-15.63383">
    <time>1971-01-13T12:03:50Z</time>
  <cmt>extensions = 1.51</cmt>
    </trkpt>
    <trkpt lat="28.13984" lon="-15.634048">
    <time>1971-01-13T12:04:10Z</time>
  <cmt>extensions = 0.38</cmt>
    </trkpt>
    <trkpt lat="28.139768" lon="-15.634146">
    <time>1971-01-13T12:04:21Z</time>
  <cmt>extensions = 1.14</cmt>
    </trkpt>
    <trkpt lat="28.139724" lon="-15.634325">
    <time>1971-01-13T12:04:38Z</time>
  <cmt>extensions = 1.65</cmt>
    </trkpt>
    <trkpt lat="28.139654" lon="-15.63429">
    <time>1971-01-13T12:04:45Z</time>
  <cmt>extensions = 2.30</cmt>
    </trkpt>
    <trkpt lat="28.139407" lon="-15.634343">
    <time>1971-01-13T12:05:10Z</time>
  <cmt>extensions = 1.40</cmt>
    </trkpt>
    <trkpt lat="28.139291" lon="-15.634437">
    <time>1971-01-13T12:05:25Z</time>
  <cmt>extensions = 1.21</cmt>
    </trkpt>
    <trkpt lat="28.139171" lon="-15.634512">
    <time>1971-01-13T12:05:38Z</time>
  <cmt>extensions = 1.02</cmt>
    </trkpt>
    <trkpt lat="28.13908" lon="-15.634585">
    <time>1971-01-13T12:05:49Z</time>
  <cmt>extensions = 1.03</cmt>
    </trkpt>
    <trkpt lat="28.13895" lon="-15.634774">
    <time>1971-01-13T12:06:11Z</time>
  <cmt>extensions = 2.61</cmt>
    </trkpt>
    <trkpt lat="28.138827" lon="-15.634788">
    <time>1971-01-13T12:06:23Z</time>
  <cmt>extensions = 0.73</cmt>
    </trkpt>
    <trkpt lat="28.138733" lon="-15.634864">
    <time>1971-01-13T12:06:34Z</time>
  <cmt>extensions = 1.17</cmt>
    </trkpt>
    <trkpt lat="28.138629" lon="-15.63491">
    <time>1971-01-13T12:06:46Z</time>
  <cmt>extensions = 0.89</cmt>
    </trkpt>
    <trkpt lat="28.138511" lon="-15.634921">
    <time>1971-01-13T12:06:57Z</time>
  <cmt>extensions = 1.32</cmt>
    </trkpt>
    <trkpt lat="28.138448" lon="-15.634956">
    <time>1971-01-13T12:07:04Z</time>
  <cmt>extensions = 1.72</cmt>
    </trkpt>
    <trkpt lat="28.138367" lon="-15.634989">
    <time>1971-01-13T12:07:13Z</time>
  <cmt>extensions = 1.92</cmt>
    </trkpt>
    <trkpt lat="28.138245" lon="-15.634977">
    <time>1971-01-13T12:07:25Z</time>
  <cmt>extensions = 2.42</cmt>
    </trkpt>
    <trkpt lat="28.138185" lon="-15.635019">
    <time>1971-01-13T12:07:32Z</time>
  <cmt>extensions = 1.31</cmt>
    </trkpt>
    <trkpt lat="28.138036" lon="-15.63505">
    <time>1971-01-13T12:07:47Z</time>
  <cmt>extensions = 0.72</cmt>
    </trkpt>
    <trkpt lat="28.1379" lon="-15.635025">
    <time>1971-01-13T12:08:01Z</time>
  <cmt>extensions = 0.40</cmt>
    </trkpt>
    <trkpt lat="28.137835" lon="-15.635029">
    <time>1971-01-13T12:08:07Z</time>
  <cmt>extensions = 1.21</cmt>
    </trkpt>
    <trkpt lat="28.137699" lon="-15.634968">
    <time>1971-01-13T12:08:22Z</time>
  <cmt>extensions = 1.48</cmt>
    </trkpt>
    <trkpt lat="28.137492" lon="-15.634948">
    <time>1971-01-13T12:08:43Z</time>
  <cmt>extensions = 1.05</cmt>
    </trkpt>
    <trkpt lat="28.137453" lon="-15.634883">
    <time>1971-01-13T12:08:50Z</time>
  <cmt>extensions = 1.10</cmt>
    </trkpt>
    <trkpt lat="28.137294" lon="-15.634813">
    <time>1971-01-13T12:09:07Z</time>
  <cmt>extensions = 0.65</cmt>
    </trkpt>
    <trkpt lat="28.137107" lon="-15.63479">
    <time>1971-01-13T12:09:26Z</time>
  <cmt>extensions = 1.26</cmt>
    </trkpt>
    <trkpt lat="28.137042" lon="-15.634646">
    <time>1971-01-13T12:09:40Z</time>
  <cmt>extensions = 0.85</cmt>
    </trkpt>
    <trkpt lat="28.136948" lon="-15.634663">
    <time>1971-01-13T12:09:49Z</time>
  <cmt>extensions = 0.41</cmt>
    </trkpt>
    <trkpt lat="28.136863" lon="-15.634594">
    <time>1971-01-13T12:10:00Z</time>
  <cmt>extensions = 0.27</cmt>
    </trkpt>
    <trkpt lat="28.136772" lon="-15.634565">
    <time>1971-01-13T12:10:09Z</time>
  <cmt>extensions = 1.92</cmt>
    </trkpt>
    <trkpt lat="28.136715" lon="-15.634578">
    <time>1971-01-13T12:10:15Z</time>
  <cmt>extensions = 2.53</cmt>
    </trkpt>
    <trkpt lat="28.136657" lon="-15.634581">
    <time>1971-01-13T12:10:21Z</time>
  <cmt>extensions = 1.01</cmt>
    </trkpt>
    <trkpt lat="28.1364" lon="-15.634707">
    <time>1971-01-13T12:10:49Z</time>
  <cmt>extensions = 2.55</cmt>
    </trkpt>
    <trkpt lat="28.136323" lon="-15.63478">
    <time>1971-01-13T12:10:59Z</time>
  <cmt>extensions = 1.02</cmt>
    </trkpt>
    <trkpt lat="28.13614" lon="-15.635038">
    <time>1971-01-13T12:11:28Z</time>
  <cmt>extensions = 1.23</cmt>
    </trkpt>
    <trkpt lat="28.136085" lon="-15.635102">
    <time>1971-01-13T12:11:36Z</time>
  <cmt>extensions = 0.47</cmt>
    </trkpt>
    <trkpt lat="28.135838" lon="-15.635223">
    <time>1971-01-13T12:12:03Z</time>
  <cmt>extensions = 1.43</cmt>
    </trkpt>
    <trkpt lat="28.135776" lon="-15.635288">
    <time>1971-01-13T12:12:11Z</time>
  <cmt>extensions = 0.85</cmt>
    </trkpt>
    <trkpt lat="28.135547" lon="-15.635428">
    <time>1971-01-13T12:12:37Z</time>
  <cmt>extensions = 1.46</cmt>
    </trkpt>
    <trkpt lat="28.135348" lon="-15.635597">
    <time>1971-01-13T12:13:02Z</time>
  <cmt>extensions = 2.12</cmt>
    </trkpt>
    <trkpt lat="28.135284" lon="-15.635683">
    <time>1971-01-13T12:13:12Z</time>
  <cmt>extensions = 1.07</cmt>
    </trkpt>
    <trkpt lat="28.135215" lon="-15.635752">
    <time>1971-01-13T12:13:21Z</time>
  <cmt>extensions = 1.10</cmt>
    </trkpt>
    <trkpt lat="28.135151" lon="-15.635751">
    <time>1971-01-13T12:13:27Z</time>
  <cmt>extensions = 0.59</cmt>
    </trkpt>
    <trkpt lat="28.135091" lon="-15.63577">
    <time>1971-01-13T12:13:34Z</time>
  <cmt>extensions = 1.50</cmt>
    </trkpt>
    <trkpt lat="28.134846" lon="-15.635894">
    <time>1971-01-13T12:14:00Z</time>
  <cmt>extensions = 0.48</cmt>
    </trkpt>
    <trkpt lat="28.134779" lon="-15.635952">
    <time>1971-01-13T12:14:09Z</time>
  <cmt>extensions = 1.39</cmt>
    </trkpt>
    <trkpt lat="28.134701" lon="-15.636">
    <time>1971-01-13T12:14:18Z</time>
  <cmt>extensions = 1.17</cmt>
    </trkpt>
    <trkpt lat="28.134451" lon="-15.636203">
    <time>1971-01-13T12:14:48Z</time>
  <cmt>extensions = 2.22</cmt>
    </trkpt>
    <trkpt lat="28.134399" lon="-15.636231">
    <time>1971-01-13T12:14:54Z</time>
  <cmt>extensions = 0.91</cmt>
    </trkpt>
    <trkpt lat="28.134257" lon="-15.636285">
    <time>1971-01-13T12:15:09Z</time>
  <cmt>extensions = 2.85</cmt>
    </trkpt>
    <trkpt lat="28.13416" lon="-15.636366">
    <time>1971-01-13T12:15:21Z</time>
  <cmt>extensions = 1.07</cmt>
    </trkpt>
    <trkpt lat="28.133823" lon="-15.636569">
    <time>1971-01-13T12:15:59Z</time>
  <cmt>extensions = 1.61</cmt>
    </trkpt>
    <trkpt lat="28.13375" lon="-15.636649">
    <time>1971-01-13T12:16:09Z</time>
  <cmt>extensions = 1.25</cmt>
    </trkpt>
    <trkpt lat="28.133723" lon="-15.636797">
    <time>1971-01-13T12:16:23Z</time>
  <cmt>extensions = 1.59</cmt>
    </trkpt>
    <trkpt lat="28.133717" lon="-15.636901">
    <time>1971-01-13T12:16:32Z</time>
  <cmt>extensions = 1.08</cmt>
    </trkpt>
    <trkpt lat="28.133773" lon="-15.636935">
    <time>1971-01-13T12:16:38Z</time>
  <cmt>extensions = 0.44</cmt>
    </trkpt>
    <trkpt lat="28.13366" lon="-15.636838">
    <time>1971-01-13T12:16:52Z</time>
  <cmt>extensions = 1.33</cmt>
    </trkpt>
    <trkpt lat="28.133615" lon="-15.636771">
    <time>1971-01-13T12:17:00Z</time>
  <cmt>extensions = 1.03</cmt>
    </trkpt>
    <trkpt lat="28.133549" lon="-15.636639">
    <time>1971-01-13T12:17:13Z</time>
  <cmt>extensions = 1.32</cmt>
    </trkpt>
    <trkpt lat="28.133522" lon="-15.636492">
    <time>1971-01-13T12:17:26Z</time>
  <cmt>extensions = 1.31</cmt>
    </trkpt>
    <trkpt lat="28.133541" lon="-15.636295">
    <time>1971-01-13T12:17:44Z</time>
  <cmt>extensions = 1.24</cmt>
    </trkpt>
    <trkpt lat="28.133434" lon="-15.636266">
    <time>1971-01-13T12:17:55Z</time>
  <cmt>extensions = 1.45</cmt>
    </trkpt>
    <trkpt lat="28.133238" lon="-15.636429">
    <time>1971-01-13T12:18:19Z</time>
  <cmt>extensions = 1.78</cmt>
    </trkpt>
    <trkpt lat="28.133232" lon="-15.636593">
    <time>1971-01-13T12:18:33Z</time>
  <cmt>extensions = 1.40</cmt>
    </trkpt>
    <trkpt lat="28.133283" lon="-15.636909">
    <time>1971-01-13T12:19:02Z</time>
  <cmt>extensions = 1.38</cmt>
    </trkpt>
    <trkpt lat="28.133313" lon="-15.637031">
    <time>1971-01-13T12:19:13Z</time>
  <cmt>extensions = 1.22</cmt>
    </trkpt>
    <trkpt lat="28.133329" lon="-15.637214">
    <time>1971-01-13T12:19:29Z</time>
  <cmt>extensions = 2.16</cmt>
    </trkpt>
    <trkpt lat="28.13325" lon="-15.637343">
    <time>1971-01-13T12:19:43Z</time>
  <cmt>extensions = 2.71</cmt>
    </trkpt>
    <trkpt lat="28.133209" lon="-15.63744">
    <time>1971-01-13T12:19:53Z</time>
  <cmt>extensions = 1.48</cmt>
    </trkpt>
    <trkpt lat="28.133076" lon="-15.637605">
    <time>1971-01-13T12:20:12Z</time>
  <cmt>extensions = 1.08</cmt>
    </trkpt>
    <trkpt lat="28.133014" lon="-15.637664">
    <time>1971-01-13T12:20:20Z</time>
  <cmt>extensions = 1.28</cmt>
    </trkpt>
    <trkpt lat="28.132891" lon="-15.637719">
    <time>1971-01-13T12:20:33Z</time>
  <cmt>extensions = 2.49</cmt>
    </trkpt>
    <trkpt lat="28.13279" lon="-15.637798">
    <time>1971-01-13T12:20:46Z</time>
  <cmt>extensions = 1.08</cmt>
    </trkpt>
    <trkpt lat="28.132715" lon="-15.637841">
    <time>1971-01-13T12:20:54Z</time>
  <cmt>extensions = 1.52</cmt>
    </trkpt>
    <trkpt lat="28.132656" lon="-15.637857">
    <time>1971-01-13T12:21:00Z</time>
  <cmt>extensions = 0.96</cmt>
    </trkpt>
    <trkpt lat="28.132541" lon="-15.637928">
    <time>1971-01-13T12:21:13Z</time>
  <cmt>extensions = 2.20</cmt>
    </trkpt>
    <trkpt lat="28.132252" lon="-15.63805">
    <time>1971-01-13T12:21:44Z</time>
  <cmt>extensions = 1.20</cmt>
    </trkpt>
    <trkpt lat="28.131975" lon="-15.6382">
    <time>1971-01-13T12:22:15Z</time>
  <cmt>extensions = 1.08</cmt>
    </trkpt>
    <trkpt lat="28.131712" lon="-15.63826">
    <time>1971-01-13T12:22:41Z</time>
  <cmt>extensions = 0.80</cmt>
    </trkpt>
    <trkpt lat="28.131588" lon="-15.638275">
    <time>1971-01-13T12:22:54Z</time>
  <cmt>extensions = 1.35</cmt>
    </trkpt>
    <trkpt lat="28.131417" lon="-15.638326">
    <time>1971-01-13T12:23:11Z</time>
  <cmt>extensions = 0.37</cmt>
    </trkpt>
    <trkpt lat="28.131343" lon="-15.63832">
    <time>1971-01-13T12:23:19Z</time>
  <cmt>extensions = 0.56</cmt>
    </trkpt>
    <trkpt lat="28.131396" lon="-15.638188">
    <time>1971-01-13T12:23:32Z</time>
  <cmt>extensions = 1.15</cmt>
    </trkpt>
    <trkpt lat="28.1315" lon="-15.637998">
    <time>1971-01-13T12:23:51Z</time>
  <cmt>extensions = 1.21</cmt>
    </trkpt>
    <trkpt lat="28.131542" lon="-15.637893">
    <time>1971-01-13T12:24:02Z</time>
  <cmt>extensions = 0.41</cmt>
    </trkpt>
    <trkpt lat="28.131586" lon="-15.637805">
    <time>1971-01-13T12:24:10Z</time>
  <cmt>extensions = 0.94</cmt>
    </trkpt>
    <trkpt lat="28.131621" lon="-15.637703">
    <time>1971-01-13T12:24:20Z</time>
  <cmt>extensions = 1.15</cmt>
    </trkpt>
    <trkpt lat="28.13173" lon="-15.637473">
    <time>1971-01-13T12:24:43Z</time>
  <cmt>extensions = 1.19</cmt>
    </trkpt>
    <trkpt lat="28.131759" lon="-15.63737">
    <time>1971-01-13T12:24:53Z</time>
  <cmt>extensions = 1.51</cmt>
    </trkpt>
    <trkpt lat="28.131768" lon="-15.637305">
    <time>1971-01-13T12:24:58Z</time>
  <cmt>extensions = 1.26</cmt>
    </trkpt>
    <trkpt lat="28.13177" lon="-15.637147">
    <time>1971-01-13T12:25:12Z</time>
  <cmt>extensions = 0.31</cmt>
    </trkpt>
    <trkpt lat="28.131755" lon="-15.637038">
    <time>1971-01-13T12:25:22Z</time>
  <cmt>extensions = 1.13</cmt>
    </trkpt>
    <trkpt lat="28.131765" lon="-15.636919">
    <time>1971-01-13T12:25:33Z</time>
  <cmt>extensions = 0.66</cmt>
    </trkpt>
    <trkpt lat="28.131747" lon="-15.636771">
    <time>1971-01-13T12:25:46Z</time>
  <cmt>extensions = 0.75</cmt>
    </trkpt>
    <trkpt lat="28.131753" lon="-15.636697">
    <time>1971-01-13T12:25:52Z</time>
  <cmt>extensions = 1.43</cmt>
    </trkpt>
    <trkpt lat="28.131794" lon="-15.636573">
    <time>1971-01-13T12:26:04Z</time>
  <cmt>extensions = 0.67</cmt>
    </trkpt>
    <trkpt lat="28.131846" lon="-15.636525">
    <time>1971-01-13T12:26:11Z</time>
  <cmt>extensions = 0.38</cmt>
    </trkpt>
    <trkpt lat="28.13192" lon="-15.636417">
    <time>1971-01-13T12:26:23Z</time>
  <cmt>extensions = 1.70</cmt>
    </trkpt>
    <trkpt lat="28.132003" lon="-15.63626">
    <time>1971-01-13T12:26:39Z</time>
  <cmt>extensions = 1.06</cmt>
    </trkpt>
    <trkpt lat="28.132026" lon="-15.636161">
    <time>1971-01-13T12:26:48Z</time>
  <cmt>extensions = 0.77</cmt>
    </trkpt>
    <trkpt lat="28.131995" lon="-15.635955">
    <time>1971-01-13T12:27:06Z</time>
  <cmt>extensions = 0.79</cmt>
    </trkpt>
    <trkpt lat="28.132027" lon="-15.635785">
    <time>1971-01-13T12:27:22Z</time>
  <cmt>extensions = 1.42</cmt>
    </trkpt>
    <trkpt lat="28.13206" lon="-15.635726">
    <time>1971-01-13T12:27:28Z</time>
  <cmt>extensions = 2.29</cmt>
    </trkpt>
    <trkpt lat="28.132039" lon="-15.635568">
    <time>1971-01-13T12:27:42Z</time>
  <cmt>extensions = 1.05</cmt>
    </trkpt>
    <trkpt lat="28.131968" lon="-15.635432">
    <time>1971-01-13T12:27:56Z</time>
  <cmt>extensions = 1.85</cmt>
    </trkpt>
    <trkpt lat="28.131946" lon="-15.63525">
    <time>1971-01-13T12:28:12Z</time>
  <cmt>extensions = 1.36</cmt>
    </trkpt>
    <trkpt lat="28.131858" lon="-15.635222">
    <time>1971-01-13T12:28:21Z</time>
  <cmt>extensions = 0.04</cmt>
    </trkpt>
    <trkpt lat="28.13177" lon="-15.635277">
    <time>1971-01-13T12:28:31Z</time>
  <cmt>extensions = 0.80</cmt>
    </trkpt>
    <trkpt lat="28.131559" lon="-15.635485">
    <time>1971-01-13T12:28:59Z</time>
  <cmt>extensions = 1.18</cmt>
    </trkpt>
    <trkpt lat="28.131509" lon="-15.635526">
    <time>1971-01-13T12:29:05Z</time>
  <cmt>extensions = 0.96</cmt>
    </trkpt>
    <trkpt lat="28.131455" lon="-15.635562">
    <time>1971-01-13T12:29:12Z</time>
  <cmt>extensions = 1.29</cmt>
    </trkpt>
    <trkpt lat="28.131392" lon="-15.635592">
    <time>1971-01-13T12:29:18Z</time>
  <cmt>extensions = 0.90</cmt>
    </trkpt>
    <trkpt lat="28.131298" lon="-15.635621">
    <time>1971-01-13T12:29:28Z</time>
  <cmt>extensions = 0.18</cmt>
    </trkpt>
    <trkpt lat="28.131156" lon="-15.635719">
    <time>1971-01-13T12:29:45Z</time>
  <cmt>extensions = 1.73</cmt>
    </trkpt>
    <trkpt lat="28.130964" lon="-15.635824">
    <time>1971-01-13T12:30:06Z</time>
  <cmt>extensions = 0.10</cmt>
    </trkpt>
    <trkpt lat="28.130866" lon="-15.635891">
    <time>1971-01-13T12:30:17Z</time>
  <cmt>extensions = 1.12</cmt>
    </trkpt>
    <trkpt lat="28.130816" lon="-15.635938">
    <time>1971-01-13T12:30:24Z</time>
  <cmt>extensions = 0.98</cmt>
    </trkpt>
    <trkpt lat="28.130712" lon="-15.636007">
    <time>1971-01-13T12:30:36Z</time>
  <cmt>extensions = 1.16</cmt>
    </trkpt>
    <trkpt lat="28.130593" lon="-15.636069">
    <time>1971-01-13T12:30:49Z</time>
  <cmt>extensions = 1.33</cmt>
    </trkpt>
    <trkpt lat="28.130478" lon="-15.63615">
    <time>1971-01-13T12:31:03Z</time>
  <cmt>extensions = 1.25</cmt>
    </trkpt>
    <trkpt lat="28.130324" lon="-15.636234">
    <time>1971-01-13T12:31:20Z</time>
  <cmt>extensions = 1.77</cmt>
    </trkpt>
    <trkpt lat="28.130221" lon="-15.636265">
    <time>1971-01-13T12:31:30Z</time>
  <cmt>extensions = 0.87</cmt>
    </trkpt>
    <trkpt lat="28.130065" lon="-15.636342">
    <time>1971-01-13T12:31:47Z</time>
  <cmt>extensions = 1.25</cmt>
    </trkpt>
    <trkpt lat="28.129699" lon="-15.636608">
    <time>1971-01-13T12:32:31Z</time>
  <cmt>extensions = 1.07</cmt>
    </trkpt>
    <trkpt lat="28.129614" lon="-15.636705">
    <time>1971-01-13T12:32:43Z</time>
  <cmt>extensions = 1.92</cmt>
    </trkpt>
    <trkpt lat="28.129513" lon="-15.636791">
    <time>1971-01-13T12:32:55Z</time>
  <cmt>extensions = 1.28</cmt>
    </trkpt>
    <trkpt lat="28.129327" lon="-15.636842">
    <time>1971-01-13T12:33:14Z</time>
  <cmt>extensions = 1.89</cmt>
    </trkpt>
    <trkpt lat="28.129266" lon="-15.636845">
    <time>1971-01-13T12:33:20Z</time>
  <cmt>extensions = 1.12</cmt>
    </trkpt>
    <trkpt lat="28.129007" lon="-15.636829">
    <time>1971-01-13T12:33:46Z</time>
  <cmt>extensions = 1.36</cmt>
    </trkpt>
    <trkpt lat="28.128858" lon="-15.636859">
    <time>1971-01-13T12:34:01Z</time>
  <cmt>extensions = 1.12</cmt>
    </trkpt>
    <trkpt lat="28.128784" lon="-15.636863">
    <time>1971-01-13T12:34:09Z</time>
  <cmt>extensions = 0.92</cmt>
    </trkpt>
    <trkpt lat="28.1287" lon="-15.636823">
    <time>1971-01-13T12:34:18Z</time>
  <cmt>extensions = 1.31</cmt>
    </trkpt>
    <trkpt lat="28.128604" lon="-15.636794">
    <time>1971-01-13T12:34:28Z</time>
  <cmt>extensions = 1.24</cmt>
    </trkpt>
    <trkpt lat="28.128538" lon="-15.636803">
    <time>1971-01-13T12:34:34Z</time>
  <cmt>extensions = 1.70</cmt>
    </trkpt>
    <trkpt lat="28.128472" lon="-15.636798">
    <time>1971-01-13T12:34:41Z</time>
  <cmt>extensions = 1.45</cmt>
    </trkpt>
    <trkpt lat="28.128246" lon="-15.636906">
    <time>1971-01-13T12:35:05Z</time>
  <cmt>extensions = 1.20</cmt>
    </trkpt>
    <trkpt lat="28.128195" lon="-15.636862">
    <time>1971-01-13T12:35:12Z</time>
  <cmt>extensions = 1.36</cmt>
    </trkpt>
    <trkpt lat="28.128136" lon="-15.636875">
    <time>1971-01-13T12:35:18Z</time>
  <cmt>extensions = 1.60</cmt>
    </trkpt>
    <trkpt lat="28.128017" lon="-15.636813">
    <time>1971-01-13T12:35:31Z</time>
  <cmt>extensions = 0.97</cmt>
    </trkpt>
    <trkpt lat="28.127838" lon="-15.6368">
    <time>1971-01-13T12:35:49Z</time>
  <cmt>extensions = 1.35</cmt>
    </trkpt>
    <trkpt lat="28.127809" lon="-15.636723">
    <time>1971-01-13T12:35:56Z</time>
  <cmt>extensions = 1.37</cmt>
    </trkpt>
    <trkpt lat="28.127676" lon="-15.636637">
    <time>1971-01-13T12:36:12Z</time>
  <cmt>extensions = 1.30</cmt>
    </trkpt>
    <trkpt lat="28.127565" lon="-15.63665">
    <time>1971-01-13T12:36:23Z</time>
  <cmt>extensions = 1.28</cmt>
    </trkpt>
    <trkpt lat="28.127502" lon="-15.636567">
    <time>1971-01-13T12:36:32Z</time>
  <cmt>extensions = 1.76</cmt>
    </trkpt>
    <trkpt lat="28.127448" lon="-15.636534">
    <time>1971-01-13T12:36:38Z</time>
  <cmt>extensions = 1.37</cmt>
    </trkpt>
    <trkpt lat="28.12725" lon="-15.636318">
    <time>1971-01-13T12:37:06Z</time>
  <cmt>extensions = 1.13</cmt>
    </trkpt>
    <trkpt lat="28.127145" lon="-15.636261">
    <time>1971-01-13T12:37:17Z</time>
  <cmt>extensions = 1.03</cmt>
    </trkpt>
    <trkpt lat="28.127103" lon="-15.636209">
    <time>1971-01-13T12:37:24Z</time>
  <cmt>extensions = 1.15</cmt>
    </trkpt>
    <trkpt lat="28.126938" lon="-15.636173">
    <time>1971-01-13T12:37:40Z</time>
  <cmt>extensions = 1.50</cmt>
    </trkpt>
    <trkpt lat="28.126837" lon="-15.636083">
    <time>1971-01-13T12:37:53Z</time>
  <cmt>extensions = 1.19</cmt>
    </trkpt>
    <trkpt lat="28.126802" lon="-15.636031">
    <time>1971-01-13T12:37:59Z</time>
  <cmt>extensions = 1.44</cmt>
    </trkpt>
    <trkpt lat="28.126713" lon="-15.635967">
    <time>1971-01-13T12:38:10Z</time>
  <cmt>extensions = 1.60</cmt>
    </trkpt>
    <trkpt lat="28.126563" lon="-15.635972">
    <time>1971-01-13T12:38:25Z</time>
  <cmt>extensions = 1.58</cmt>
    </trkpt>
    <trkpt lat="28.126471" lon="-15.635924">
    <time>1971-01-13T12:38:35Z</time>
  <cmt>extensions = 1.18</cmt>
    </trkpt>
    <trkpt lat="28.126318" lon="-15.635869">
    <time>1971-01-13T12:38:51Z</time>
  <cmt>extensions = 1.22</cmt>
    </trkpt>
    <trkpt lat="28.126115" lon="-15.63589">
    <time>1971-01-13T12:39:11Z</time>
  <cmt>extensions = 1.28</cmt>
    </trkpt>
    <trkpt lat="28.126056" lon="-15.635871">
    <time>1971-01-13T12:39:17Z</time>
  <cmt>extensions = 0.95</cmt>
    </trkpt>
    <trkpt lat="28.125721" lon="-15.635831">
    <time>1971-01-13T12:39:51Z</time>
  <cmt>extensions = 1.25</cmt>
    </trkpt>
    <trkpt lat="28.125429" lon="-15.63583">
    <time>1971-01-13T12:40:20Z</time>
  <cmt>extensions = 1.53</cmt>
    </trkpt>
    <trkpt lat="28.125341" lon="-15.635782">
    <time>1971-01-13T12:40:30Z</time>
  <cmt>extensions = 1.26</cmt>
    </trkpt>
    <trkpt lat="28.125281" lon="-15.635806">
    <time>1971-01-13T12:40:36Z</time>
  <cmt>extensions = 2.00</cmt>
    </trkpt>
    <trkpt lat="28.12521" lon="-15.635813">
    <time>1971-01-13T12:40:43Z</time>
  <cmt>extensions = 1.19</cmt>
    </trkpt>
    <trkpt lat="28.125071" lon="-15.635809">
    <time>1971-01-13T12:40:57Z</time>
  <cmt>extensions = 1.26</cmt>
    </trkpt>
    <trkpt lat="28.125008" lon="-15.63582">
    <time>1971-01-13T12:41:03Z</time>
  <cmt>extensions = 1.34</cmt>
    </trkpt>
    <trkpt lat="28.124871" lon="-15.635796">
    <time>1971-01-13T12:41:17Z</time>
  <cmt>extensions = 2.26</cmt>
    </trkpt>
    <trkpt lat="28.124774" lon="-15.635813">
    <time>1971-01-13T12:41:27Z</time>
  <cmt>extensions = 1.90</cmt>
    </trkpt>
    <trkpt lat="28.12455" lon="-15.635907">
    <time>1971-01-13T12:41:51Z</time>
  <cmt>extensions = 1.36</cmt>
    </trkpt>
    <trkpt lat="28.124483" lon="-15.635956">
    <time>1971-01-13T12:41:59Z</time>
  <cmt>extensions = 1.66</cmt>
    </trkpt>
    <trkpt lat="28.124215" lon="-15.636112">
    <time>1971-01-13T12:42:29Z</time>
  <cmt>extensions = 1.38</cmt>
    </trkpt>
    <trkpt lat="28.124056" lon="-15.636275">
    <time>1971-01-13T12:42:50Z</time>
  <cmt>extensions = 2.06</cmt>
    </trkpt>
    <trkpt lat="28.123822" lon="-15.636348">
    <time>1971-01-13T12:43:14Z</time>
  <cmt>extensions = 1.57</cmt>
    </trkpt>
    <trkpt lat="28.123728" lon="-15.636365">
    <time>1971-01-13T12:43:24Z</time>
  <cmt>extensions = 1.15</cmt>
    </trkpt>
    <trkpt lat="28.123672" lon="-15.636413">
    <time>1971-01-13T12:43:31Z</time>
  <cmt>extensions = 1.12</cmt>
    </trkpt>
    <trkpt lat="28.123575" lon="-15.636415">
    <time>1971-01-13T12:43:40Z</time>
  <cmt>extensions = 1.36</cmt>
    </trkpt>
    <trkpt lat="28.123527" lon="-15.636451">
    <time>1971-01-13T12:43:46Z</time>
  <cmt>extensions = 0.89</cmt>
    </trkpt>
    <trkpt lat="28.12349" lon="-15.6365">
    <time>1971-01-13T12:43:52Z</time>
  <cmt>extensions = 1.95</cmt>
    </trkpt>
    <trkpt lat="28.12339" lon="-15.636584">
    <time>1971-01-13T12:44:04Z</time>
  <cmt>extensions = 1.58</cmt>
    </trkpt>
    <trkpt lat="28.123333" lon="-15.63661">
    <time>1971-01-13T12:44:10Z</time>
  <cmt>extensions = 0.83</cmt>
    </trkpt>
    <trkpt lat="28.123275" lon="-15.63666">
    <time>1971-01-13T12:44:18Z</time>
  <cmt>extensions = 1.42</cmt>
    </trkpt>
    <trkpt lat="28.123199" lon="-15.636677">
    <time>1971-01-13T12:44:25Z</time>
  <cmt>extensions = 1.00</cmt>
    </trkpt>
    <trkpt lat="28.123132" lon="-15.636708">
    <time>1971-01-13T12:44:33Z</time>
  <cmt>extensions = 1.29</cmt>
    </trkpt>
    <trkpt lat="28.123065" lon="-15.636749">
    <time>1971-01-13T12:44:40Z</time>
  <cmt>extensions = 1.51</cmt>
    </trkpt>
    <trkpt lat="28.122797" lon="-15.636873">
    <time>1971-01-13T12:45:09Z</time>
  <cmt>extensions = 1.11</cmt>
    </trkpt>
    <trkpt lat="28.122691" lon="-15.636937">
    <time>1971-01-13T12:45:21Z</time>
  <cmt>extensions = 1.33</cmt>
    </trkpt>
    <trkpt lat="28.122563" lon="-15.636988">
    <time>1971-01-13T12:45:35Z</time>
  <cmt>extensions = 1.56</cmt>
    </trkpt>
    <trkpt lat="28.122315" lon="-15.636969">
    <time>1971-01-13T12:45:59Z</time>
  <cmt>extensions = 1.20</cmt>
    </trkpt>
    <trkpt lat="28.122237" lon="-15.636996">
    <time>1971-01-13T12:46:08Z</time>
  <cmt>extensions = 1.17</cmt>
    </trkpt>
    <trkpt lat="28.12214" lon="-15.637011">
    <time>1971-01-13T12:46:17Z</time>
  <cmt>extensions = 1.26</cmt>
    </trkpt>
    <trkpt lat="28.121984" lon="-15.637086">
    <time>1971-01-13T12:46:34Z</time>
  <cmt>extensions = 1.04</cmt>
    </trkpt>
    <trkpt lat="28.121673" lon="-15.637034">
    <time>1971-01-13T12:47:06Z</time>
  <cmt>extensions = 1.13</cmt>
    </trkpt>
    <trkpt lat="28.121436" lon="-15.637032">
    <time>1971-01-13T12:47:29Z</time>
  <cmt>extensions = 1.53</cmt>
    </trkpt>
    <trkpt lat="28.121347" lon="-15.637044">
    <time>1971-01-13T12:47:38Z</time>
  <cmt>extensions = 1.39</cmt>
    </trkpt>
    <trkpt lat="28.121255" lon="-15.636984">
    <time>1971-01-13T12:47:49Z</time>
  <cmt>extensions = 1.03</cmt>
    </trkpt>
    <trkpt lat="28.121199" lon="-15.637001">
    <time>1971-01-13T12:47:55Z</time>
  <cmt>extensions = 1.63</cmt>
    </trkpt>
    <trkpt lat="28.120949" lon="-15.637042">
    <time>1971-01-13T12:48:20Z</time>
  <cmt>extensions = 1.27</cmt>
    </trkpt>
    <trkpt lat="28.120829" lon="-15.636988">
    <time>1971-01-13T12:48:33Z</time>
  <cmt>extensions = 1.02</cmt>
    </trkpt>
    <trkpt lat="28.120586" lon="-15.636682">
    <time>1971-01-13T12:49:09Z</time>
  <cmt>extensions = 1.34</cmt>
    </trkpt>
    <trkpt lat="28.120488" lon="-15.636657">
    <time>1971-01-13T12:49:19Z</time>
  <cmt>extensions = 1.10</cmt>
    </trkpt>
    <trkpt lat="28.12034" lon="-15.636538">
    <time>1971-01-13T12:49:37Z</time>
  <cmt>extensions = 1.01</cmt>
    </trkpt>
    <trkpt lat="28.120281" lon="-15.636425">
    <time>1971-01-13T12:49:49Z</time>
  <cmt>extensions = 1.44</cmt>
    </trkpt>
    <trkpt lat="28.120222" lon="-15.636411">
    <time>1971-01-13T12:49:55Z</time>
  <cmt>extensions = 2.22</cmt>
    </trkpt>
    <trkpt lat="28.120178" lon="-15.636338">
    <time>1971-01-13T12:50:03Z</time>
  <cmt>extensions = 1.19</cmt>
    </trkpt>
    <trkpt lat="28.120127" lon="-15.636282">
    <time>1971-01-13T12:50:10Z</time>
  <cmt>extensions = 1.03</cmt>
    </trkpt>
    <trkpt lat="28.120067" lon="-15.636254">
    <time>1971-01-13T12:50:16Z</time>
  <cmt>extensions = 1.48</cmt>
    </trkpt>
    <trkpt lat="28.119948" lon="-15.636157">
    <time>1971-01-13T12:50:31Z</time>
  <cmt>extensions = 1.04</cmt>
    </trkpt>
    <trkpt lat="28.11991" lon="-15.636096">
    <time>1971-01-13T12:50:37Z</time>
  <cmt>extensions = 1.24</cmt>
    </trkpt>
    <trkpt lat="28.119813" lon="-15.636062">
    <time>1971-01-13T12:50:47Z</time>
  <cmt>extensions = 0.99</cmt>
    </trkpt>
    <trkpt lat="28.119743" lon="-15.636027">
    <time>1971-01-13T12:50:55Z</time>
  <cmt>extensions = 0.97</cmt>
    </trkpt>
    <trkpt lat="28.11934" lon="-15.635886">
    <time>1971-01-13T12:51:37Z</time>
  <cmt>extensions = 1.11</cmt>
    </trkpt>
    <trkpt lat="28.119079" lon="-15.635763">
    <time>1971-01-13T12:52:05Z</time>
  <cmt>extensions = 1.38</cmt>
    </trkpt>
    <trkpt lat="28.118771" lon="-15.635671">
    <time>1971-01-13T12:52:37Z</time>
  <cmt>extensions = 1.36</cmt>
    </trkpt>
    <trkpt lat="28.11865" lon="-15.635695">
    <time>1971-01-13T12:52:49Z</time>
  <cmt>extensions = 1.26</cmt>
    </trkpt>
    <trkpt lat="28.118587" lon="-15.635735">
    <time>1971-01-13T12:52:57Z</time>
  <cmt>extensions = 1.87</cmt>
    </trkpt>
    <trkpt lat="28.118469" lon="-15.635798">
    <time>1971-01-13T12:53:10Z</time>
  <cmt>extensions = 1.14</cmt>
    </trkpt>
    <trkpt lat="28.118384" lon="-15.635867">
    <time>1971-01-13T12:53:20Z</time>
  <cmt>extensions = 1.21</cmt>
    </trkpt>
    <trkpt lat="28.118241" lon="-15.635919">
    <time>1971-01-13T12:53:35Z</time>
  <cmt>extensions = 1.81</cmt>
    </trkpt>
    <trkpt lat="28.117952" lon="-15.635979">
    <time>1971-01-13T12:54:04Z</time>
  <cmt>extensions = 0.80</cmt>
    </trkpt>
    <trkpt lat="28.117895" lon="-15.636013">
    <time>1971-01-13T12:54:11Z</time>
  <cmt>extensions = 0.65</cmt>
    </trkpt>
    <trkpt lat="28.117823" lon="-15.636039">
    <time>1971-01-13T12:54:18Z</time>
  <cmt>extensions = 1.43</cmt>
    </trkpt>
    <trkpt lat="28.117627" lon="-15.636166">
    <time>1971-01-13T12:54:41Z</time>
  <cmt>extensions = 1.26</cmt>
    </trkpt>
    <trkpt lat="28.117527" lon="-15.636214">
    <time>1971-01-13T12:54:52Z</time>
  <cmt>extensions = 1.10</cmt>
    </trkpt>
    <trkpt lat="28.117478" lon="-15.63626">
    <time>1971-01-13T12:54:58Z</time>
  <cmt>extensions = 0.86</cmt>
    </trkpt>
    <trkpt lat="28.117396" lon="-15.636304">
    <time>1971-01-13T12:55:07Z</time>
  <cmt>extensions = 0.39</cmt>
    </trkpt>
    <trkpt lat="28.117305" lon="-15.63637">
    <time>1971-01-13T12:55:18Z</time>
  <cmt>extensions = 1.34</cmt>
    </trkpt>
    <trkpt lat="28.117147" lon="-15.636402">
    <time>1971-01-13T12:55:34Z</time>
  <cmt>extensions = 1.99</cmt>
    </trkpt>
    <trkpt lat="28.117077" lon="-15.636388">
    <time>1971-01-13T12:55:41Z</time>
  <cmt>extensions = 1.30</cmt>
    </trkpt>
    <trkpt lat="28.116951" lon="-15.636463">
    <time>1971-01-13T12:55:55Z</time>
  <cmt>extensions = 1.19</cmt>
    </trkpt>
    <trkpt lat="28.116881" lon="-15.636465">
    <time>1971-01-13T12:56:02Z</time>
  <cmt>extensions = 1.50</cmt>
    </trkpt>
    <trkpt lat="28.116816" lon="-15.636484">
    <time>1971-01-13T12:56:09Z</time>
  <cmt>extensions = 2.49</cmt>
    </trkpt>
    <trkpt lat="28.116645" lon="-15.636508">
    <time>1971-01-13T12:56:26Z</time>
  <cmt>extensions = 1.57</cmt>
    </trkpt>
    <trkpt lat="28.116509" lon="-15.63649">
    <time>1971-01-13T12:56:40Z</time>
  <cmt>extensions = 1.43</cmt>
    </trkpt>
    <trkpt lat="28.116396" lon="-15.636512">
    <time>1971-01-13T12:56:51Z</time>
  <cmt>extensions = 1.66</cmt>
    </trkpt>
    <trkpt lat="28.116286" lon="-15.636524">
    <time>1971-01-13T12:57:02Z</time>
  <cmt>extensions = 0.93</cmt>
    </trkpt>
    <trkpt lat="28.116182" lon="-15.636545">
    <time>1971-01-13T12:57:13Z</time>
  <cmt>extensions = 0.64</cmt>
    </trkpt>
    <trkpt lat="28.116099" lon="-15.636603">
    <time>1971-01-13T12:57:22Z</time>
  <cmt>extensions = 2.17</cmt>
    </trkpt>
    <trkpt lat="28.116042" lon="-15.636617">
    <time>1971-01-13T12:57:28Z</time>
  <cmt>extensions = 1.70</cmt>
    </trkpt>
    <trkpt lat="28.11591" lon="-15.636549">
    <time>1971-01-13T12:57:43Z</time>
  <cmt>extensions = 1.24</cmt>
    </trkpt>
    <trkpt lat="28.115844" lon="-15.636547">
    <time>1971-01-13T12:57:49Z</time>
  <cmt>extensions = 1.33</cmt>
    </trkpt>
    <trkpt lat="28.11576" lon="-15.636466">
    <time>1971-01-13T12:58:00Z</time>
  <cmt>extensions = 0.94</cmt>
    </trkpt>
    <trkpt lat="28.11578" lon="-15.63639">
    <time>1971-01-13T12:58:07Z</time>
  <cmt>extensions = 0.27</cmt>
    </trkpt>
    <trkpt lat="28.115627" lon="-15.636378">
    <time>1971-01-13T12:58:23Z</time>
  <cmt>extensions = 0.88</cmt>
    </trkpt>
    <trkpt lat="28.115565" lon="-15.636434">
    <time>1971-01-13T12:58:30Z</time>
  <cmt>extensions = 0.14</cmt>
    </trkpt>
    <trkpt lat="28.115529" lon="-15.636489">
    <time>1971-01-13T12:58:36Z</time>
  <cmt>extensions = 0.99</cmt>
    </trkpt>
    <trkpt lat="28.115409" lon="-15.636563">
    <time>1971-01-13T12:58:50Z</time>
  <cmt>extensions = 1.09</cmt>
    </trkpt>
    <trkpt lat="28.115322" lon="-15.636653">
    <time>1971-01-13T12:59:02Z</time>
  <cmt>extensions = 1.09</cmt>
    </trkpt>
    <trkpt lat="28.115286" lon="-15.636718">
    <time>1971-01-13T12:59:09Z</time>
  <cmt>extensions = 0.63</cmt>
    </trkpt>
    <trkpt lat="28.115275" lon="-15.636824">
    <time>1971-01-13T12:59:18Z</time>
  <cmt>extensions = 0.66</cmt>
    </trkpt>
    <trkpt lat="28.115207" lon="-15.63674">
    <time>1971-01-13T12:59:28Z</time>
  <cmt>extensions = 0.29</cmt>
    </trkpt>
    <trkpt lat="28.115162" lon="-15.636833">
    <time>1971-01-13T12:59:37Z</time>
  <cmt>extensions = 0.62</cmt>
    </trkpt>
    <trkpt lat="28.115094" lon="-15.636775">
    <time>1971-01-13T12:59:46Z</time>
  <cmt>extensions = 0.68</cmt>
    </trkpt>
    <trkpt lat="28.115106" lon="-15.636899">
    <time>1971-01-13T12:59:57Z</time>
  <cmt>extensions = 0.94</cmt>
    </trkpt>
    <trkpt lat="28.115217" lon="-15.637105">
    <time>1971-01-13T13:00:18Z</time>
  <cmt>extensions = 0.91</cmt>
    </trkpt>
    <trkpt lat="28.115514" lon="-15.637456">
    <time>1971-01-13T13:01:01Z</time>
  <cmt>extensions = 0.56</cmt>
    </trkpt>
    <trkpt lat="28.115584" lon="-15.637598">
    <time>1971-01-13T13:01:15Z</time>
  <cmt>extensions = 1.19</cmt>
    </trkpt>
    <trkpt lat="28.115667" lon="-15.637702">
    <time>1971-01-13T13:01:28Z</time>
  <cmt>extensions = 1.06</cmt>
    </trkpt>
    <trkpt lat="28.115557" lon="-15.637678">
    <time>1971-01-13T13:01:39Z</time>
  <cmt>extensions = 0.89</cmt>
    </trkpt>
    <trkpt lat="28.115474" lon="-15.637647">
    <time>1971-01-13T13:01:48Z</time>
  <cmt>extensions = 0.97</cmt>
    </trkpt>
    <trkpt lat="28.115218" lon="-15.637442">
    <time>1971-01-13T13:02:19Z</time>
  <cmt>extensions = 0.98</cmt>
    </trkpt>
    <trkpt lat="28.115123" lon="-15.637432">
    <time>1971-01-13T13:02:29Z</time>
  <cmt>extensions = 0.71</cmt>
    </trkpt>
    <trkpt lat="28.115029" lon="-15.637394">
    <time>1971-01-13T13:02:38Z</time>
  <cmt>extensions = 0.66</cmt>
    </trkpt>
    <trkpt lat="28.115002" lon="-15.637479">
    <time>1971-01-13T13:02:46Z</time>
  <cmt>extensions = 0.62</cmt>
    </trkpt>
    <trkpt lat="28.115051" lon="-15.637669">
    <time>1971-01-13T13:03:04Z</time>
  <cmt>extensions = 0.80</cmt>
    </trkpt>
    <trkpt lat="28.114948" lon="-15.637704">
    <time>1971-01-13T13:03:15Z</time>
  <cmt>extensions = 0.86</cmt>
    </trkpt>
    <trkpt lat="28.114712" lon="-15.637639">
    <time>1971-01-13T13:03:39Z</time>
  <cmt>extensions = 0.31</cmt>
    </trkpt>
    <trkpt lat="28.114644" lon="-15.637663">
    <time>1971-01-13T13:03:46Z</time>
  <cmt>extensions = 1.13</cmt>
    </trkpt>
    <trkpt lat="28.11454" lon="-15.637721">
    <time>1971-01-13T13:03:58Z</time>
  <cmt>extensions = 0.90</cmt>
    </trkpt>
    <trkpt lat="28.114457" lon="-15.637793">
    <time>1971-01-13T13:04:08Z</time>
  <cmt>extensions = 0.74</cmt>
    </trkpt>
    <trkpt lat="28.114365" lon="-15.63794">
    <time>1971-01-13T13:04:24Z</time>
  <cmt>extensions = 1.18</cmt>
    </trkpt>
    <trkpt lat="28.114283" lon="-15.638121">
    <time>1971-01-13T13:04:42Z</time>
  <cmt>extensions = 1.29</cmt>
    </trkpt>
    <trkpt lat="28.11423" lon="-15.638148">
    <time>1971-01-13T13:04:48Z</time>
  <cmt>extensions = 1.35</cmt>
    </trkpt>
    <trkpt lat="28.114135" lon="-15.638143">
    <time>1971-01-13T13:04:57Z</time>
  <cmt>extensions = 1.51</cmt>
    </trkpt>
    <trkpt lat="28.113998" lon="-15.638157">
    <time>1971-01-13T13:05:11Z</time>
  <cmt>extensions = 0.10</cmt>
    </trkpt>
    <trkpt lat="28.114083" lon="-15.638174">
    <time>1971-01-13T13:05:19Z</time>
  <cmt>extensions = 0.33</cmt>
    </trkpt>
    <trkpt lat="28.114116" lon="-15.638234">
    <time>1971-01-13T13:05:26Z</time>
  <cmt>extensions = 1.39</cmt>
    </trkpt>
    <trkpt lat="28.114253" lon="-15.638286">
    <time>1971-01-13T13:05:40Z</time>
  <cmt>extensions = 1.46</cmt>
    </trkpt>
    <trkpt lat="28.114396" lon="-15.638374">
    <time>1971-01-13T13:05:56Z</time>
  <cmt>extensions = 1.13</cmt>
    </trkpt>
    <trkpt lat="28.11446" lon="-15.638473">
    <time>1971-01-13T13:06:07Z</time>
  <cmt>extensions = 1.57</cmt>
    </trkpt>
    <trkpt lat="28.114573" lon="-15.638529">
    <time>1971-01-13T13:06:19Z</time>
  <cmt>extensions = 1.72</cmt>
    </trkpt>
    <trkpt lat="28.114803" lon="-15.638531">
    <time>1971-01-13T13:06:42Z</time>
  <cmt>extensions = 1.35</cmt>
    </trkpt>
    <trkpt lat="28.114918" lon="-15.638544">
    <time>1971-01-13T13:06:54Z</time>
  <cmt>extensions = 1.43</cmt>
    </trkpt>
    <trkpt lat="28.115072" lon="-15.63859">
    <time>1971-01-13T13:07:10Z</time>
  <cmt>extensions = 1.43</cmt>
    </trkpt>
    <trkpt lat="28.115255" lon="-15.638608">
    <time>1971-01-13T13:07:28Z</time>
  <cmt>extensions = 1.32</cmt>
    </trkpt>
    <trkpt lat="28.115326" lon="-15.63868">
    <time>1971-01-13T13:07:38Z</time>
  <cmt>extensions = 1.81</cmt>
    </trkpt>
    <trkpt lat="28.115383" lon="-15.638705">
    <time>1971-01-13T13:07:44Z</time>
  <cmt>extensions = 1.13</cmt>
    </trkpt>
    <trkpt lat="28.11548" lon="-15.638706">
    <time>1971-01-13T13:07:53Z</time>
  <cmt>extensions = 0.95</cmt>
    </trkpt>
    <trkpt lat="28.115747" lon="-15.63876">
    <time>1971-01-13T13:08:20Z</time>
  <cmt>extensions = 1.60</cmt>
    </trkpt>
    <trkpt lat="28.115828" lon="-15.638829">
    <time>1971-01-13T13:08:31Z</time>
  <cmt>extensions = 0.71</cmt>
    </trkpt>
    <trkpt lat="28.115892" lon="-15.638827">
    <time>1971-01-13T13:08:37Z</time>
  <cmt>extensions = 0.24</cmt>
    </trkpt>
    <trkpt lat="28.116045" lon="-15.638799">
    <time>1971-01-13T13:08:52Z</time>
  <cmt>extensions = 1.44</cmt>
    </trkpt>
    <trkpt lat="28.116158" lon="-15.638764">
    <time>1971-01-13T13:09:04Z</time>
  <cmt>extensions = 0.90</cmt>
    </trkpt>
    <trkpt lat="28.116312" lon="-15.638753">
    <time>1971-01-13T13:09:19Z</time>
  <cmt>extensions = 1.02</cmt>
    </trkpt>
    <trkpt lat="28.116479" lon="-15.638714">
    <time>1971-01-13T13:09:36Z</time>
  <cmt>extensions = 1.73</cmt>
    </trkpt>
    <trkpt lat="28.116542" lon="-15.638774">
    <time>1971-01-13T13:09:45Z</time>
  <cmt>extensions = 0.92</cmt>
    </trkpt>
    <trkpt lat="28.116624" lon="-15.638731">
    <time>1971-01-13T13:09:54Z</time>
  <cmt>extensions = 0.91</cmt>
    </trkpt>
    <trkpt lat="28.11667" lon="-15.638681">
    <time>1971-01-13T13:10:00Z</time>
  <cmt>extensions = 1.01</cmt>
    </trkpt>
    <trkpt lat="28.116775" lon="-15.638689">
    <time>1971-01-13T13:10:11Z</time>
  <cmt>extensions = 1.30</cmt>
    </trkpt>
    <trkpt lat="28.116889" lon="-15.63874">
    <time>1971-01-13T13:10:23Z</time>
  <cmt>extensions = 1.52</cmt>
    </trkpt>
    <trkpt lat="28.116956" lon="-15.638701">
    <time>1971-01-13T13:10:30Z</time>
  <cmt>extensions = 0.64</cmt>
    </trkpt>
    <trkpt lat="28.117064" lon="-15.638736">
    <time>1971-01-13T13:10:41Z</time>
  <cmt>extensions = 0.89</cmt>
    </trkpt>
    <trkpt lat="28.117249" lon="-15.638723">
    <time>1971-01-13T13:11:00Z</time>
  <cmt>extensions = 1.03</cmt>
    </trkpt>
    <trkpt lat="28.117334" lon="-15.638708">
    <time>1971-01-13T13:11:09Z</time>
  <cmt>extensions = 0.80</cmt>
    </trkpt>
    <trkpt lat="28.11744" lon="-15.638674">
    <time>1971-01-13T13:11:20Z</time>
  <cmt>extensions = 4.09</cmt>
    </trkpt>
    <trkpt lat="28.117627" lon="-15.638686">
    <time>1971-01-13T13:11:38Z</time>
  <cmt>extensions = 1.04</cmt>
    </trkpt>
    <trkpt lat="28.117705" lon="-15.638684">
    <time>1971-01-13T13:11:46Z</time>
  <cmt>extensions = 1.09</cmt>
    </trkpt>
    <trkpt lat="28.117948" lon="-15.638633">
    <time>1971-01-13T13:12:11Z</time>
  <cmt>extensions = 1.72</cmt>
    </trkpt>
    <trkpt lat="28.11801" lon="-15.638627">
    <time>1971-01-13T13:12:17Z</time>
  <cmt>extensions = 1.39</cmt>
    </trkpt>
    <trkpt lat="28.118223" lon="-15.638632">
    <time>1971-01-13T13:12:38Z</time>
  <cmt>extensions = 1.26</cmt>
    </trkpt>
    <trkpt lat="28.118353" lon="-15.638677">
    <time>1971-01-13T13:12:52Z</time>
  <cmt>extensions = 1.03</cmt>
    </trkpt>
    <trkpt lat="28.118438" lon="-15.638763">
    <time>1971-01-13T13:13:03Z</time>
  <cmt>extensions = 1.41</cmt>
    </trkpt>
    <trkpt lat="28.118519" lon="-15.638823">
    <time>1971-01-13T13:13:13Z</time>
  <cmt>extensions = 0.73</cmt>
    </trkpt>
    <trkpt lat="28.118647" lon="-15.638834">
    <time>1971-01-13T13:13:26Z</time>
  <cmt>extensions = 1.10</cmt>
    </trkpt>
    <trkpt lat="28.118775" lon="-15.638799">
    <time>1971-01-13T13:13:39Z</time>
  <cmt>extensions = 0.88</cmt>
    </trkpt>
    <trkpt lat="28.118796" lon="-15.638708">
    <time>1971-01-13T13:13:47Z</time>
  <cmt>extensions = 0.92</cmt>
    </trkpt>
    <trkpt lat="28.118791" lon="-15.638637">
    <time>1971-01-13T13:13:53Z</time>
  <cmt>extensions = 0.78</cmt>
    </trkpt>
    <trkpt lat="28.118862" lon="-15.6386">
    <time>1971-01-13T13:14:01Z</time>
  <cmt>extensions = 1.45</cmt>
    </trkpt>
    <trkpt lat="28.119089" lon="-15.638657">
    <time>1971-01-13T13:14:24Z</time>
  <cmt>extensions = 1.02</cmt>
    </trkpt>
    <trkpt lat="28.11958" lon="-15.638457">
    <time>1971-01-13T13:15:16Z</time>
  <cmt>extensions = 1.55</cmt>
    </trkpt>
    <trkpt lat="28.119707" lon="-15.638428">
    <time>1971-01-13T13:15:29Z</time>
  <cmt>extensions = 2.26</cmt>
    </trkpt>
    <trkpt lat="28.119772" lon="-15.638463">
    <time>1971-01-13T13:15:36Z</time>
  <cmt>extensions = 0.86</cmt>
    </trkpt>
    <trkpt lat="28.120244" lon="-15.638611">
    <time>1971-01-13T13:16:25Z</time>
  <cmt>extensions = 1.43</cmt>
    </trkpt>
    <trkpt lat="28.120322" lon="-15.638621">
    <time>1971-01-13T13:16:33Z</time>
  <cmt>extensions = 1.75</cmt>
    </trkpt>
    <trkpt lat="28.120555" lon="-15.638719">
    <time>1971-01-13T13:16:58Z</time>
  <cmt>extensions = 0.99</cmt>
    </trkpt>
    <trkpt lat="28.120667" lon="-15.638799">
    <time>1971-01-13T13:17:11Z</time>
  <cmt>extensions = 1.63</cmt>
    </trkpt>
    <trkpt lat="28.120792" lon="-15.638841">
    <time>1971-01-13T13:17:24Z</time>
  <cmt>extensions = 0.81</cmt>
    </trkpt>
    <trkpt lat="28.120811" lon="-15.638745">
    <time>1971-01-13T13:17:33Z</time>
  <cmt>extensions = 0.52</cmt>
    </trkpt>
    <trkpt lat="28.120846" lon="-15.638865">
    <time>1971-01-13T13:17:44Z</time>
  <cmt>extensions = 0.42</cmt>
    </trkpt>
    <trkpt lat="28.120938" lon="-15.638948">
    <time>1971-01-13T13:17:56Z</time>
  <cmt>extensions = 0.69</cmt>
    </trkpt>
    <trkpt lat="28.121029" lon="-15.63908">
    <time>1971-01-13T13:18:10Z</time>
  <cmt>extensions = 1.37</cmt>
    </trkpt>
    <trkpt lat="28.121099" lon="-15.639096">
    <time>1971-01-13T13:18:18Z</time>
  <cmt>extensions = 1.11</cmt>
    </trkpt>
    <trkpt lat="28.121287" lon="-15.639165">
    <time>1971-01-13T13:18:37Z</time>
  <cmt>extensions = 1.53</cmt>
    </trkpt>
    <trkpt lat="28.121408" lon="-15.639249">
    <time>1971-01-13T13:18:51Z</time>
  <cmt>extensions = 1.21</cmt>
    </trkpt>
    <trkpt lat="28.121454" lon="-15.63932">
    <time>1971-01-13T13:18:59Z</time>
  <cmt>extensions = 1.42</cmt>
    </trkpt>
    <trkpt lat="28.1215" lon="-15.639417">
    <time>1971-01-13T13:19:09Z</time>
  <cmt>extensions = 0.95</cmt>
    </trkpt>
    <trkpt lat="28.121565" lon="-15.639661">
    <time>1971-01-13T13:19:31Z</time>
  <cmt>extensions = 1.72</cmt>
    </trkpt>
    <trkpt lat="28.121642" lon="-15.639755">
    <time>1971-01-13T13:19:43Z</time>
  <cmt>extensions = 1.86</cmt>
    </trkpt>
    <trkpt lat="28.121848" lon="-15.639715">
    <time>1971-01-13T13:20:04Z</time>
  <cmt>extensions = 1.55</cmt>
    </trkpt>
    <trkpt lat="28.122023" lon="-15.63972">
    <time>1971-01-13T13:20:21Z</time>
  <cmt>extensions = 1.67</cmt>
    </trkpt>
    <trkpt lat="28.122233" lon="-15.639957">
    <time>1971-01-13T13:20:51Z</time>
  <cmt>extensions = 1.35</cmt>
    </trkpt>
    <trkpt lat="28.122321" lon="-15.639944">
    <time>1971-01-13T13:20:59Z</time>
  <cmt>extensions = 1.23</cmt>
    </trkpt>
    <trkpt lat="28.122398" lon="-15.639954">
    <time>1971-01-13T13:21:07Z</time>
  <cmt>extensions = 0.05</cmt>
    </trkpt>
    <trkpt lat="28.122778" lon="-15.63976">
    <time>1971-01-13T13:21:49Z</time>
  <cmt>extensions = 1.56</cmt>
    </trkpt>
    <trkpt lat="28.122848" lon="-15.639771">
    <time>1971-01-13T13:21:56Z</time>
  <cmt>extensions = 0.49</cmt>
    </trkpt>
    <trkpt lat="28.122995" lon="-15.63983">
    <time>1971-01-13T13:22:11Z</time>
  <cmt>extensions = 1.34</cmt>
    </trkpt>
    <trkpt lat="28.123261" lon="-15.640019">
    <time>1971-01-13T13:22:43Z</time>
  <cmt>extensions = 1.40</cmt>
    </trkpt>
    <trkpt lat="28.123475" lon="-15.640232">
    <time>1971-01-13T13:23:11Z</time>
  <cmt>extensions = 1.49</cmt>
    </trkpt>
    <trkpt lat="28.123661" lon="-15.640262">
    <time>1971-01-13T13:23:30Z</time>
  <cmt>extensions = 1.24</cmt>
    </trkpt>
    <trkpt lat="28.123777" lon="-15.640261">
    <time>1971-01-13T13:23:41Z</time>
  <cmt>extensions = 1.29</cmt>
    </trkpt>
    <trkpt lat="28.124022" lon="-15.640281">
    <time>1971-01-13T13:24:06Z</time>
  <cmt>extensions = 1.28</cmt>
    </trkpt>
    <trkpt lat="28.124093" lon="-15.640277">
    <time>1971-01-13T13:24:13Z</time>
  <cmt>extensions = 1.55</cmt>
    </trkpt>
    <trkpt lat="28.124322" lon="-15.640317">
    <time>1971-01-13T13:24:36Z</time>
  <cmt>extensions = 1.59</cmt>
    </trkpt>
    <trkpt lat="28.124448" lon="-15.640443">
    <time>1971-01-13T13:24:53Z</time>
  <cmt>extensions = 1.57</cmt>
    </trkpt>
    <trkpt lat="28.124515" lon="-15.640471">
    <time>1971-01-13T13:25:00Z</time>
  <cmt>extensions = 0.61</cmt>
    </trkpt>
    <trkpt lat="28.124611" lon="-15.64056">
    <time>1971-01-13T13:25:12Z</time>
  <cmt>extensions = 0.24</cmt>
    </trkpt>
    <trkpt lat="28.124756" lon="-15.64063">
    <time>1971-01-13T13:25:28Z</time>
  <cmt>extensions = 1.35</cmt>
    </trkpt>
    <trkpt lat="28.124927" lon="-15.640659">
    <time>1971-01-13T13:25:45Z</time>
  <cmt>extensions = 0.56</cmt>
    </trkpt>
    <trkpt lat="28.125009" lon="-15.640646">
    <time>1971-01-13T13:25:54Z</time>
  <cmt>extensions = 1.32</cmt>
    </trkpt>
    <trkpt lat="28.125112" lon="-15.64059">
    <time>1971-01-13T13:26:05Z</time>
  <cmt>extensions = 1.59</cmt>
    </trkpt>
    <trkpt lat="28.125229" lon="-15.640544">
    <time>1971-01-13T13:26:17Z</time>
  <cmt>extensions = 1.53</cmt>
    </trkpt>
    <trkpt lat="28.125718" lon="-15.640594">
    <time>1971-01-13T13:27:06Z</time>
  <cmt>extensions = 1.84</cmt>
    </trkpt>
    <trkpt lat="28.125877" lon="-15.640644">
    <time>1971-01-13T13:27:23Z</time>
  <cmt>extensions = 1.31</cmt>
    </trkpt>
    <trkpt lat="28.126063" lon="-15.640551">
    <time>1971-01-13T13:27:43Z</time>
  <cmt>extensions = 1.62</cmt>
    </trkpt>
    <trkpt lat="28.126185" lon="-15.640506">
    <time>1971-01-13T13:27:56Z</time>
  <cmt>extensions = 0.51</cmt>
    </trkpt>
    <trkpt lat="28.126395" lon="-15.64064">
    <time>1971-01-13T13:28:20Z</time>
  <cmt>extensions = 0.49</cmt>
    </trkpt>
    <trkpt lat="28.126431" lon="-15.640696">
    <time>1971-01-13T13:28:26Z</time>
  <cmt>extensions = 1.36</cmt>
    </trkpt>
    <trkpt lat="28.126538" lon="-15.640806">
    <time>1971-01-13T13:28:41Z</time>
  <cmt>extensions = 1.24</cmt>
    </trkpt>
    <trkpt lat="28.126569" lon="-15.640872">
    <time>1971-01-13T13:28:47Z</time>
  <cmt>extensions = 0.01</cmt>
    </trkpt>
    <trkpt lat="28.126774" lon="-15.640975">
    <time>1971-01-13T13:29:09Z</time>
  <cmt>extensions = 1.39</cmt>
    </trkpt>
    <trkpt lat="28.12693" lon="-15.641082">
    <time>1971-01-13T13:29:28Z</time>
  <cmt>extensions = 1.35</cmt>
    </trkpt>
    <trkpt lat="28.127031" lon="-15.641106">
    <time>1971-01-13T13:29:38Z</time>
  <cmt>extensions = 1.44</cmt>
    </trkpt>
    <trkpt lat="28.127267" lon="-15.641062">
    <time>1971-01-13T13:30:02Z</time>
  <cmt>extensions = 1.76</cmt>
    </trkpt>
    <trkpt lat="28.12746" lon="-15.641057">
    <time>1971-01-13T13:30:21Z</time>
  <cmt>extensions = 1.65</cmt>
    </trkpt>
    <trkpt lat="28.127597" lon="-15.641081">
    <time>1971-01-13T13:30:35Z</time>
  <cmt>extensions = 1.47</cmt>
    </trkpt>
    <trkpt lat="28.127755" lon="-15.641073">
    <time>1971-01-13T13:30:51Z</time>
  <cmt>extensions = 1.33</cmt>
    </trkpt>
    <trkpt lat="28.128375" lon="-15.641167">
    <time>1971-01-13T13:31:53Z</time>
  <cmt>extensions = 1.46</cmt>
    </trkpt>
    <trkpt lat="28.12844" lon="-15.64114">
    <time>1971-01-13T13:32:00Z</time>
  <cmt>extensions = 1.59</cmt>
    </trkpt>
    <trkpt lat="28.128563" lon="-15.641181">
    <time>1971-01-13T13:32:13Z</time>
  <cmt>extensions = 1.43</cmt>
    </trkpt>
    <trkpt lat="28.128658" lon="-15.641226">
    <time>1971-01-13T13:32:23Z</time>
  <cmt>extensions = 1.04</cmt>
    </trkpt>
    <trkpt lat="28.128889" lon="-15.641302">
    <time>1971-01-13T13:32:47Z</time>
  <cmt>extensions = 1.50</cmt>
    </trkpt>
    <trkpt lat="28.12926" lon="-15.641261">
    <time>1971-01-13T13:33:24Z</time>
  <cmt>extensions = 1.43</cmt>
    </trkpt>
    <trkpt lat="28.129357" lon="-15.641212">
    <time>1971-01-13T13:33:35Z</time>
  <cmt>extensions = 1.31</cmt>
    </trkpt>
    <trkpt lat="28.129532" lon="-15.641188">
    <time>1971-01-13T13:33:52Z</time>
  <cmt>extensions = 1.40</cmt>
    </trkpt>
    <trkpt lat="28.129616" lon="-15.641201">
    <time>1971-01-13T13:34:01Z</time>
  <cmt>extensions = 1.57</cmt>
    </trkpt>
    <trkpt lat="28.129834" lon="-15.64135">
    <time>1971-01-13T13:34:26Z</time>
  <cmt>extensions = 2.05</cmt>
    </trkpt>
    <trkpt lat="28.129912" lon="-15.641441">
    <time>1971-01-13T13:34:37Z</time>
  <cmt>extensions = 1.74</cmt>
    </trkpt>
    <trkpt lat="28.130096" lon="-15.641531">
    <time>1971-01-13T13:34:57Z</time>
  <cmt>extensions = 1.49</cmt>
    </trkpt>
    <trkpt lat="28.130262" lon="-15.641518">
    <time>1971-01-13T13:35:14Z</time>
  <cmt>extensions = 1.42</cmt>
    </trkpt>
    <trkpt lat="28.130401" lon="-15.641582">
    <time>1971-01-13T13:35:29Z</time>
  <cmt>extensions = 1.67</cmt>
    </trkpt>
    <trkpt lat="28.130562" lon="-15.6416">
    <time>1971-01-13T13:35:45Z</time>
  <cmt>extensions = 1.50</cmt>
    </trkpt>
    <trkpt lat="28.130632" lon="-15.641629">
    <time>1971-01-13T13:35:53Z</time>
  <cmt>extensions = 1.38</cmt>
    </trkpt>
    <trkpt lat="28.130753" lon="-15.64166">
    <time>1971-01-13T13:36:05Z</time>
  <cmt>extensions = 1.97</cmt>
    </trkpt>
    <trkpt lat="28.130863" lon="-15.641707">
    <time>1971-01-13T13:36:17Z</time>
  <cmt>extensions = 1.01</cmt>
    </trkpt>
    <trkpt lat="28.131072" lon="-15.641622">
    <time>1971-01-13T13:36:39Z</time>
  <cmt>extensions = 1.77</cmt>
    </trkpt>
    <trkpt lat="28.131245" lon="-15.64163">
    <time>1971-01-13T13:36:56Z</time>
  <cmt>extensions = 1.93</cmt>
    </trkpt>
    <trkpt lat="28.132119" lon="-15.641515">
    <time>1971-01-13T13:38:24Z</time>
  <cmt>extensions = 1.59</cmt>
    </trkpt>
    <trkpt lat="28.132214" lon="-15.641533">
    <time>1971-01-13T13:38:33Z</time>
  <cmt>extensions = 2.14</cmt>
    </trkpt>
    <trkpt lat="28.132339" lon="-15.641597">
    <time>1971-01-13T13:38:47Z</time>
  <cmt>extensions = 1.53</cmt>
    </trkpt>
    <trkpt lat="28.132553" lon="-15.641639">
    <time>1971-01-13T13:39:09Z</time>
  <cmt>extensions = 1.61</cmt>
    </trkpt>
    <trkpt lat="28.132779" lon="-15.64162">
    <time>1971-01-13T13:39:31Z</time>
  <cmt>extensions = 1.42</cmt>
    </trkpt>
    <trkpt lat="28.132954" lon="-15.641586">
    <time>1971-01-13T13:39:49Z</time>
  <cmt>extensions = 1.80</cmt>
    </trkpt>
    <trkpt lat="28.133057" lon="-15.641522">
    <time>1971-01-13T13:40:01Z</time>
  <cmt>extensions = 1.39</cmt>
    </trkpt>
    <trkpt lat="28.133135" lon="-15.641324">
    <time>1971-01-13T13:40:20Z</time>
  <cmt>extensions = 2.14</cmt>
    </trkpt>
    <trkpt lat="28.133377" lon="-15.641146">
    <time>1971-01-13T13:40:49Z</time>
  <cmt>extensions = 1.42</cmt>
    </trkpt>
    <trkpt lat="28.13346" lon="-15.641098">
    <time>1971-01-13T13:40:58Z</time>
  <cmt>extensions = 1.48</cmt>
    </trkpt>
    <trkpt lat="28.13349" lon="-15.640954">
    <time>1971-01-13T13:41:11Z</time>
  <cmt>extensions = 1.45</cmt>
    </trkpt>
    <trkpt lat="28.133626" lon="-15.640813">
    <time>1971-01-13T13:41:30Z</time>
  <cmt>extensions = 2.05</cmt>
    </trkpt>
    <trkpt lat="28.133716" lon="-15.640614">
    <time>1971-01-13T13:41:49Z</time>
  <cmt>extensions = 1.31</cmt>
    </trkpt>
    <trkpt lat="28.133903" lon="-15.640358">
    <time>1971-01-13T13:42:19Z</time>
  <cmt>extensions = 1.92</cmt>
    </trkpt>
    <trkpt lat="28.134023" lon="-15.640279">
    <time>1971-01-13T13:42:32Z</time>
  <cmt>extensions = 1.72</cmt>
    </trkpt>
    <trkpt lat="28.134094" lon="-15.640202">
    <time>1971-01-13T13:42:42Z</time>
  <cmt>extensions = 1.56</cmt>
    </trkpt>
    <trkpt lat="28.134125" lon="-15.64012">
    <time>1971-01-13T13:42:50Z</time>
  <cmt>extensions = 1.96</cmt>
    </trkpt>
    <trkpt lat="28.134221" lon="-15.640002">
    <time>1971-01-13T13:43:04Z</time>
  <cmt>extensions = 1.97</cmt>
    </trkpt>
    <trkpt lat="28.134236" lon="-15.639922">
    <time>1971-01-13T13:43:11Z</time>
  <cmt>extensions = 1.61</cmt>
    </trkpt>
    <trkpt lat="28.134299" lon="-15.639729">
    <time>1971-01-13T13:43:30Z</time>
  <cmt>extensions = 1.59</cmt>
    </trkpt>
    <trkpt lat="28.13442" lon="-15.639531">
    <time>1971-01-13T13:43:51Z</time>
  <cmt>extensions = 1.69</cmt>
    </trkpt>
    <trkpt lat="28.134573" lon="-15.639381">
    <time>1971-01-13T13:44:11Z</time>
  <cmt>extensions = 1.73</cmt>
    </trkpt>
    <trkpt lat="28.134639" lon="-15.639343">
    <time>1971-01-13T13:44:18Z</time>
  <cmt>extensions = 1.65</cmt>
    </trkpt>
    <trkpt lat="28.134646" lon="-15.639247">
    <time>1971-01-13T13:44:27Z</time>
  <cmt>extensions = 1.58</cmt>
    </trkpt>
    <trkpt lat="28.134691" lon="-15.639141">
    <time>1971-01-13T13:44:37Z</time>
  <cmt>extensions = 1.29</cmt>
    </trkpt>
    <trkpt lat="28.134735" lon="-15.639077">
    <time>1971-01-13T13:44:44Z</time>
  <cmt>extensions = 1.75</cmt>
    </trkpt>
    <trkpt lat="28.134768" lon="-15.638996">
    <time>1971-01-13T13:44:52Z</time>
  <cmt>extensions = 1.83</cmt>
    </trkpt>
    <trkpt lat="28.134778" lon="-15.63893">
    <time>1971-01-13T13:44:58Z</time>
  <cmt>extensions = 1.64</cmt>
    </trkpt>
    <trkpt lat="28.134839" lon="-15.638767">
    <time>1971-01-13T13:45:14Z</time>
  <cmt>extensions = 1.37</cmt>
    </trkpt>
    <trkpt lat="28.134844" lon="-15.638668">
    <time>1971-01-13T13:45:23Z</time>
  <cmt>extensions = 1.95</cmt>
    </trkpt>
    <trkpt lat="28.134918" lon="-15.638569">
    <time>1971-01-13T13:45:34Z</time>
  <cmt>extensions = 1.67</cmt>
    </trkpt>
    <trkpt lat="28.13506" lon="-15.63845">
    <time>1971-01-13T13:45:52Z</time>
  <cmt>extensions = 1.79</cmt>
    </trkpt>
    <trkpt lat="28.135143" lon="-15.638247">
    <time>1971-01-13T13:46:11Z</time>
  <cmt>extensions = 1.69</cmt>
    </trkpt>
    <trkpt lat="28.135188" lon="-15.638088">
    <time>1971-01-13T13:46:26Z</time>
  <cmt>extensions = 1.48</cmt>
    </trkpt>
    <trkpt lat="28.135196" lon="-15.63799">
    <time>1971-01-13T13:46:35Z</time>
  <cmt>extensions = 1.93</cmt>
    </trkpt>
    <trkpt lat="28.135275" lon="-15.637867">
    <time>1971-01-13T13:46:48Z</time>
  <cmt>extensions = 1.56</cmt>
    </trkpt>
    <trkpt lat="28.135249" lon="-15.637617">
    <time>1971-01-13T13:47:10Z</time>
  <cmt>extensions = 1.41</cmt>
    </trkpt>
    <trkpt lat="28.135304" lon="-15.637405">
    <time>1971-01-13T13:47:30Z</time>
  <cmt>extensions = 1.81</cmt>
    </trkpt>
    <trkpt lat="28.135476" lon="-15.637063">
    <time>1971-01-13T13:48:05Z</time>
  <cmt>extensions = 1.56</cmt>
    </trkpt>
    <trkpt lat="28.13549" lon="-15.636946">
    <time>1971-01-13T13:48:15Z</time>
  <cmt>extensions = 1.66</cmt>
    </trkpt>
    <trkpt lat="28.13555" lon="-15.636857">
    <time>1971-01-13T13:48:25Z</time>
  <cmt>extensions = 1.83</cmt>
    </trkpt>
    <trkpt lat="28.135594" lon="-15.63676">
    <time>1971-01-13T13:48:34Z</time>
  <cmt>extensions = 1.78</cmt>
    </trkpt>
    <trkpt lat="28.135621" lon="-15.636674">
    <time>1971-01-13T13:48:43Z</time>
  <cmt>extensions = 1.28</cmt>
    </trkpt>
    <trkpt lat="28.135814" lon="-15.636326">
    <time>1971-01-13T13:49:19Z</time>
  <cmt>extensions = 1.42</cmt>
    </trkpt>
    <trkpt lat="28.135824" lon="-15.636249">
    <time>1971-01-13T13:49:26Z</time>
  <cmt>extensions = 1.91</cmt>
    </trkpt>
    <trkpt lat="28.135894" lon="-15.63609">
    <time>1971-01-13T13:49:41Z</time>
  <cmt>extensions = 1.50</cmt>
    </trkpt>
    <trkpt lat="28.135966" lon="-15.63596">
    <time>1971-01-13T13:49:55Z</time>
  <cmt>extensions = 1.51</cmt>
    </trkpt>
    <trkpt lat="28.136036" lon="-15.635773">
    <time>1971-01-13T13:50:13Z</time>
  <cmt>extensions = 1.68</cmt>
    </trkpt>
    <trkpt lat="28.136162" lon="-15.635527">
    <time>1971-01-13T13:50:38Z</time>
  <cmt>extensions = 1.64</cmt>
    </trkpt>
    <trkpt lat="28.136192" lon="-15.635262">
    <time>1971-01-13T13:51:02Z</time>
  <cmt>extensions = 1.50</cmt>
    </trkpt>
    <trkpt lat="28.136221" lon="-15.635123">
    <time>1971-01-13T13:51:14Z</time>
  <cmt>extensions = 2.27</cmt>
    </trkpt>
    <trkpt lat="28.136221" lon="-15.635003">
    <time>1971-01-13T13:51:25Z</time>
  <cmt>extensions = 1.18</cmt>
    </trkpt>
    <trkpt lat="28.136373" lon="-15.634794">
    <time>1971-01-13T13:51:49Z</time>
  <cmt>extensions = 1.47</cmt>
    </trkpt>
    <trkpt lat="28.136467" lon="-15.634701">
    <time>1971-01-13T13:52:01Z</time>
  <cmt>extensions = 1.59</cmt>
    </trkpt>
    <trkpt lat="28.136542" lon="-15.634653">
    <time>1971-01-13T13:52:10Z</time>
  <cmt>extensions = 1.92</cmt>
    </trkpt>
    <trkpt lat="28.136609" lon="-15.63462">
    <time>1971-01-13T13:52:17Z</time>
  <cmt>extensions = 2.03</cmt>
    </trkpt>
    <trkpt lat="28.136722" lon="-15.634614">
    <time>1971-01-13T13:52:28Z</time>
  <cmt>extensions = 1.28</cmt>
    </trkpt>
    <trkpt lat="28.136948" lon="-15.634717">
    <time>1971-01-13T13:52:53Z</time>
  <cmt>extensions = 1.43</cmt>
    </trkpt>
    <trkpt lat="28.137063" lon="-15.634739">
    <time>1971-01-13T13:53:04Z</time>
  <cmt>extensions = 1.00</cmt>
    </trkpt>
    <trkpt lat="28.137203" lon="-15.634815">
    <time>1971-01-13T13:53:20Z</time>
  <cmt>extensions = 2.56</cmt>
    </trkpt>
    <trkpt lat="28.137261" lon="-15.634861">
    <time>1971-01-13T13:53:27Z</time>
  <cmt>extensions = 1.58</cmt>
    </trkpt>
    <trkpt lat="28.137465" lon="-15.634891">
    <time>1971-01-13T13:53:47Z</time>
  <cmt>extensions = 1.32</cmt>
    </trkpt>
    <trkpt lat="28.137581" lon="-15.634961">
    <time>1971-01-13T13:54:00Z</time>
  <cmt>extensions = 1.67</cmt>
    </trkpt>
    <trkpt lat="28.137737" lon="-15.634963">
    <time>1971-01-13T13:54:16Z</time>
  <cmt>extensions = 1.93</cmt>
    </trkpt>
    <trkpt lat="28.137824" lon="-15.634997">
    <time>1971-01-13T13:54:25Z</time>
  <cmt>extensions = 1.71</cmt>
    </trkpt>
    <trkpt lat="28.137904" lon="-15.635043">
    <time>1971-01-13T13:54:34Z</time>
  <cmt>extensions = 2.00</cmt>
    </trkpt>
    <trkpt lat="28.137972" lon="-15.635052">
    <time>1971-01-13T13:54:41Z</time>
  <cmt>extensions = 1.91</cmt>
    </trkpt>
    <trkpt lat="28.138137" lon="-15.635038">
    <time>1971-01-13T13:54:57Z</time>
  <cmt>extensions = 1.67</cmt>
    </trkpt>
    <trkpt lat="28.138241" lon="-15.635002">
    <time>1971-01-13T13:55:08Z</time>
  <cmt>extensions = 0.18</cmt>
    </trkpt>
    <trkpt lat="28.138333" lon="-15.635003">
    <time>1971-01-13T13:55:17Z</time>
  <cmt>extensions = 1.71</cmt>
    </trkpt>
    <trkpt lat="28.138503" lon="-15.634972">
    <time>1971-01-13T13:55:35Z</time>
  <cmt>extensions = 1.79</cmt>
    </trkpt>
    <trkpt lat="28.138797" lon="-15.634886">
    <time>1971-01-13T13:56:05Z</time>
  <cmt>extensions = 1.60</cmt>
    </trkpt>
    <trkpt lat="28.139277" lon="-15.634638">
    <time>1971-01-13T13:56:57Z</time>
  <cmt>extensions = 2.03</cmt>
    </trkpt>
    <trkpt lat="28.139308" lon="-15.634546">
    <time>1971-01-13T13:57:06Z</time>
  <cmt>extensions = 1.61</cmt>
    </trkpt>
    <trkpt lat="28.13941" lon="-15.634484">
    <time>1971-01-13T13:57:18Z</time>
  <cmt>extensions = 1.73</cmt>
    </trkpt>
    <trkpt lat="28.139476" lon="-15.634402">
    <time>1971-01-13T13:57:28Z</time>
  <cmt>extensions = 1.56</cmt>
    </trkpt>
    <trkpt lat="28.13957" lon="-15.634385">
    <time>1971-01-13T13:57:37Z</time>
  <cmt>extensions = 2.12</cmt>
    </trkpt>
    <trkpt lat="28.13964" lon="-15.634316">
    <time>1971-01-13T13:57:46Z</time>
  <cmt>extensions = 1.67</cmt>
    </trkpt>
    <trkpt lat="28.139745" lon="-15.634244">
    <time>1971-01-13T13:57:59Z</time>
  <cmt>extensions = 1.71</cmt>
    </trkpt>
    <trkpt lat="28.139788" lon="-15.634198">
    <time>1971-01-13T13:58:04Z</time>
  <cmt>extensions = 1.32</cmt>
    </trkpt>
    <trkpt lat="28.139785" lon="-15.63404">
    <time>1971-01-13T13:58:18Z</time>
  <cmt>extensions = 1.94</cmt>
    </trkpt>
    <trkpt lat="28.139856" lon="-15.633908">
    <time>1971-01-13T13:58:32Z</time>
  <cmt>extensions = 1.69</cmt>
    </trkpt>
    <trkpt lat="28.139981" lon="-15.633766">
    <time>1971-01-13T13:58:50Z</time>
  <cmt>extensions = 1.97</cmt>
    </trkpt>
    <trkpt lat="28.140041" lon="-15.633715">
    <time>1971-01-13T13:58:57Z</time>
  <cmt>extensions = 1.67</cmt>
    </trkpt>
    <trkpt lat="28.140204" lon="-15.633644">
    <time>1971-01-13T13:59:15Z</time>
  <cmt>extensions = 1.21</cmt>
    </trkpt>
    <trkpt lat="28.140326" lon="-15.63341">
    <time>1971-01-13T13:59:39Z</time>
  <cmt>extensions = 2.22</cmt>
    </trkpt>
    <trkpt lat="28.140306" lon="-15.63332">
    <time>1971-01-13T13:59:47Z</time>
  <cmt>extensions = 1.22</cmt>
    </trkpt>
    <trkpt lat="28.140508" lon="-15.63324">
    <time>1971-01-13T14:00:08Z</time>
  <cmt>extensions = 1.14</cmt>
    </trkpt>
    <trkpt lat="28.140566" lon="-15.633">
    <time>1971-01-13T14:00:30Z</time>
  <cmt>extensions = 3.05</cmt>
    </trkpt>
    <trkpt lat="28.140414" lon="-15.632826">
    <time>1971-01-13T14:00:52Z</time>
  <cmt>extensions = 1.81</cmt>
    </trkpt>
    <trkpt lat="28.140388" lon="-15.632762">
    <time>1971-01-13T14:00:58Z</time>
  <cmt>extensions = 1.29</cmt>
    </trkpt>
    <trkpt lat="28.140303" lon="-15.632634">
    <time>1971-01-13T14:01:12Z</time>
  <cmt>extensions = 2.03</cmt>
    </trkpt>
    <trkpt lat="28.140351" lon="-15.63256">
    <time>1971-01-13T14:01:20Z</time>
  <cmt>extensions = 1.37</cmt>
    </trkpt>
    <trkpt lat="28.140429" lon="-15.632277">
    <time>1971-01-13T14:01:46Z</time>
  <cmt>extensions = 1.46</cmt>
    </trkpt>
    <trkpt lat="28.140465" lon="-15.632252">
    <time>1971-01-13T14:01:50Z</time>
    </trkpt>
  </trkseg>
</trk>
</gpx>
